PWSweather.com
Personal Weather Stations
Station Observations
STPETERS
BroadstairsGB

BroadstairsGB

Lat: 51.37, Lon: 1.423

Elevation: 141

Station Type: WH1081

Latest ConditionsUpdated 1:15:03 PM GMT Saturday, Mar 25, 2017
Currently Today's Max Today's Min Today's Average
Temperature 50.7°F10.4°C 51.3°F10.7°C 46.0°F7.8°C 48.3°F9.1°C
Dew Point 39.0°F3.9°C 41.5°F5.3°C 38.9°F3.8°C 40.0°F4.4°C
Winds 15.1 mph NW24.3 kmh NW 18.6 mph NNW29.9 kmh NNW - 11.2 mph 18.0 kmh
Wind Gusts 22.8 mph36.7 kmh 23.5 mph37.8 kmh - -
Humidity 64% 77% 64% 73%
Pressure 30.38 in1028.8 mb 30.48 in1032.2 mb 30.38 in1028.8 mb -
Hour Temp Dew Point Humidity Winds Wind Gusts Pressure Precip Precip Rate Daily Precip Total
01:15 PM 50.7°F10.4°C 39.0°F3.9°C 64% 15.1 mph NW24.3 kmh NW 22.8 mph36.7 kmh 30.38 in1028.8 mb 0.00 in0.0 mm 0.00 in0.0 mm 0.00 in0.0 mm
01:00 PM 50.9°F10.5°C 39.6°F4.2°C 65% 14.1 mph NNW22.7 kmh NNW 19.0 mph30.6 kmh 30.38 in1028.8 mb 0.00 in0.0 mm 0.00 in0.0 mm 0.00 in0.0 mm
12:45 PM 50.4°F10.2°C 39.1°F3.9°C 65% 15.5 mph NW24.9 kmh NW 19.0 mph30.6 kmh 30.39 in1029.1 mb 0.00 in0.0 mm 0.00 in0.0 mm 0.00 in0.0 mm
12:30 PM 50.7°F10.4°C 39.0°F3.9°C 64% 18.6 mph NNW29.9 kmh NNW 22.1 mph35.6 kmh 30.40 in1029.5 mb 0.00 in0.0 mm 0.00 in0.0 mm 0.00 in0.0 mm
12:15 PM 51.3°F10.7°C 39.9°F4.4°C 65% 15.0 mph NW24.1 kmh NW 21.3 mph34.3 kmh 30.40 in1029.5 mb 0.00 in0.0 mm 0.00 in0.0 mm 0.00 in0.0 mm
12:00 PM 51.1°F10.6°C 39.7°F4.3°C 65% 18.4 mph NW29.6 kmh NW 22.1 mph35.6 kmh 30.40 in1029.5 mb 0.00 in0.0 mm 0.00 in0.0 mm 0.00 in0.0 mm
11:45 AM 51.1°F10.6°C 40.5°F4.7°C 67% 17.9 mph NW28.8 kmh NW 22.1 mph35.6 kmh 30.40 in1029.5 mb 0.00 in0.0 mm 0.00 in0.0 mm 0.00 in0.0 mm
11:30 AM 50.9°F10.5°C 40.7°F4.8°C 68% 16.3 mph NW26.2 kmh NW 23.5 mph37.8 kmh 30.42 in1030.1 mb 0.00 in0.0 mm 0.00 in0.0 mm 0.00 in0.0 mm
11:15 AM 51.1°F10.6°C 40.9°F4.9°C 68% 15.1 mph NNW24.3 kmh NNW 19.7 mph31.7 kmh 30.42 in1030.1 mb 0.00 in0.0 mm 0.00 in0.0 mm 0.00 in0.0 mm
11:00 AM 50.7°F10.4°C 40.9°F4.9°C 69% 15.0 mph N24.1 kmh N 18.3 mph29.5 kmh 30.43 in1030.5 mb 0.00 in0.0 mm 0.00 in0.0 mm 0.00 in0.0 mm
10:45 AM 50.9°F10.5°C 41.5°F5.3°C 70% 15.3 mph N24.6 kmh N 18.3 mph29.5 kmh 30.43 in1030.5 mb 0.00 in0.0 mm 0.00 in0.0 mm 0.00 in0.0 mm
10:30 AM 50.7°F10.4°C 41.3°F5.2°C 70% 15.2 mph NW24.5 kmh NW 19.0 mph30.6 kmh 30.43 in1030.5 mb 0.00 in0.0 mm 0.00 in0.0 mm 0.00 in0.0 mm
10:15 AM 50.4°F10.2°C 41.0°F5.0°C 70% 14.8 mph NNW23.8 kmh NNW 19.0 mph30.6 kmh 30.44 in1030.8 mb 0.00 in0.0 mm 0.00 in0.0 mm 0.00 in0.0 mm
10:00 AM 50.4°F10.2°C 41.0°F5.0°C 70% 14.7 mph N23.7 kmh N 18.3 mph29.5 kmh 30.43 in1030.5 mb 0.00 in0.0 mm 0.00 in0.0 mm 0.00 in0.0 mm
09:45 AM 50.4°F10.2°C 41.3°F5.2°C 71% 13.5 mph NW21.7 kmh NW 16.8 mph27.0 kmh 30.44 in1030.8 mb 0.00 in0.0 mm 0.00 in0.0 mm 0.00 in0.0 mm
09:30 AM 50.2°F10.1°C 41.1°F5.1°C 71% 11.3 mph NNW18.2 kmh NNW 14.5 mph23.3 kmh 30.44 in1030.8 mb 0.00 in0.0 mm 0.00 in0.0 mm 0.00 in0.0 mm
09:15 AM 49.6°F9.8°C 41.0°F5.0°C 72% 13.7 mph NW22.0 kmh NW 19.7 mph31.7 kmh 30.45 in1031.2 mb 0.00 in0.0 mm 0.00 in0.0 mm 0.00 in0.0 mm
09:00 AM 49.3°F9.6°C 40.6°F4.8°C 72% 13.5 mph NNW21.7 kmh NNW 16.8 mph27.0 kmh 30.45 in1031.2 mb 0.00 in0.0 mm 0.00 in0.0 mm 0.00 in0.0 mm
08:45 AM 49.3°F9.6°C 41.0°F5.0°C 73% 11.2 mph N18.0 kmh N 14.5 mph23.3 kmh 30.45 in1031.2 mb 0.00 in0.0 mm 0.00 in0.0 mm 0.00 in0.0 mm
08:30 AM 48.9°F9.4°C 40.3°F4.6°C 72% 12.1 mph N19.5 kmh N 17.4 mph28.0 kmh 30.45 in1031.2 mb 0.00 in0.0 mm 0.00 in0.0 mm 0.00 in0.0 mm
08:15 AM 48.7°F9.3°C 40.5°F4.7°C 73% 9.9 mph NNW15.9 kmh NNW 14.5 mph23.3 kmh 30.45 in1031.2 mb 0.00 in0.0 mm 0.00 in0.0 mm 0.00 in0.0 mm
08:00 AM 48.7°F9.3°C 40.8°F4.9°C 74% 10.7 mph N17.2 kmh N 14.5 mph23.3 kmh 30.46 in1031.5 mb 0.00 in0.0 mm 0.00 in0.0 mm 0.00 in0.0 mm
07:45 AM 48.4°F9.1°C 40.5°F4.7°C 74% 9.1 mph NW14.6 kmh NW 11.4 mph18.3 kmh 30.46 in1031.5 mb 0.00 in0.0 mm 0.00 in0.0 mm 0.00 in0.0 mm
07:30 AM 48.2°F9.0°C 40.3°F4.6°C 74% 8.8 mph N14.2 kmh N 13.6 mph21.9 kmh 30.46 in1031.5 mb 0.00 in0.0 mm 0.00 in0.0 mm 0.00 in0.0 mm
07:15 AM 47.7°F8.7°C 40.1°F4.5°C 75% 9.1 mph NNW14.6 kmh NNW 12.1 mph19.5 kmh 30.45 in1031.2 mb 0.00 in0.0 mm 0.00 in0.0 mm 0.00 in0.0 mm
07:00 AM 47.3°F8.5°C 40.1°F4.5°C 76% 8.6 mph N13.8 kmh N 11.4 mph18.3 kmh 30.46 in1031.5 mb 0.00 in0.0 mm 0.00 in0.0 mm 0.00 in0.0 mm
06:45 AM 46.9°F8.3°C 39.8°F4.3°C 76% 8.2 mph N13.2 kmh N 12.1 mph19.5 kmh 30.45 in1031.2 mb 0.00 in0.0 mm 0.00 in0.0 mm 0.00 in0.0 mm
06:30 AM 46.6°F8.1°C 39.4°F4.1°C 76% 9.3 mph N15.0 kmh N 12.1 mph19.5 kmh 30.45 in1031.2 mb 0.00 in0.0 mm 0.00 in0.0 mm 0.00 in0.0 mm
06:15 AM 46.2°F7.9°C 39.1°F3.9°C 76% 7.8 mph NW12.6 kmh NW 11.4 mph18.3 kmh 30.45 in1031.2 mb 0.00 in0.0 mm 0.00 in0.0 mm 0.00 in0.0 mm
06:00 AM 46.0°F7.8°C 38.9°F3.8°C 76% 8.1 mph N13.0 kmh N 13.0 mph20.9 kmh 30.45 in1031.2 mb 0.00 in0.0 mm 0.00 in0.0 mm 0.00 in0.0 mm
05:45 AM 46.0°F7.8°C 38.9°F3.8°C 76% 8.4 mph N13.5 kmh N 12.1 mph19.5 kmh 30.45 in1031.2 mb 0.00 in0.0 mm 0.00 in0.0 mm 0.00 in0.0 mm
05:30 AM 46.0°F7.8°C 38.9°F3.8°C 76% 8.1 mph N13.0 kmh N 11.4 mph18.3 kmh 30.45 in1031.2 mb 0.00 in0.0 mm 0.00 in0.0 mm 0.00 in0.0 mm
05:15 AM 46.2°F7.9°C 39.1°F3.9°C 76% 9.1 mph NW14.6 kmh NW 13.0 mph20.9 kmh 30.45 in1031.2 mb 0.00 in0.0 mm 0.00 in0.0 mm 0.00 in0.0 mm
05:00 AM 46.2°F7.9°C 39.1°F3.9°C 76% 7.9 mph N12.7 kmh N 12.1 mph19.5 kmh 30.45 in1031.2 mb 0.00 in0.0 mm 0.00 in0.0 mm 0.00 in0.0 mm
04:45 AM 47.1°F8.4°C 40.0°F4.4°C 76% 9.6 mph N15.4 kmh N 13.0 mph20.9 kmh 30.45 in1031.2 mb 0.00 in0.0 mm 0.00 in0.0 mm 0.00 in0.0 mm
04:30 AM 46.4°F8.0°C 39.3°F4.1°C 76% 9.7 mph NNW15.6 kmh NNW 13.0 mph20.9 kmh 30.45 in1031.2 mb 0.00 in0.0 mm 0.00 in0.0 mm 0.00 in0.0 mm
04:15 AM 46.2°F7.9°C 39.1°F3.9°C 76% 10.4 mph NNW16.7 kmh NNW 14.5 mph23.3 kmh 30.45 in1031.2 mb 0.00 in0.0 mm 0.00 in0.0 mm 0.00 in0.0 mm
04:00 AM 46.4°F8.0°C 39.3°F4.1°C 76% 10.5 mph NNW16.9 kmh NNW 14.5 mph23.3 kmh 30.45 in1031.2 mb 0.00 in0.0 mm 0.00 in0.0 mm 0.00 in0.0 mm
03:45 AM 46.6°F8.1°C 39.4°F4.1°C 76% 11.1 mph N17.9 kmh N 15.9 mph25.6 kmh 30.45 in1031.2 mb 0.00 in0.0 mm 0.00 in0.0 mm 0.00 in0.0 mm
03:30 AM 46.8°F8.2°C 39.6°F4.2°C 76% 11.1 mph NW17.9 kmh NW 13.0 mph20.9 kmh 30.46 in1031.5 mb 0.00 in0.0 mm 0.00 in0.0 mm 0.00 in0.0 mm
03:15 AM 46.8°F8.2°C 39.6°F4.2°C 76% 10.1 mph N16.3 kmh N 13.6 mph21.9 kmh 30.46 in1031.5 mb 0.00 in0.0 mm 0.00 in0.0 mm 0.00 in0.0 mm
03:00 AM 46.8°F8.2°C 39.6°F4.2°C 76% 10.3 mph NNW16.6 kmh NNW 15.2 mph24.5 kmh 30.46 in1031.5 mb 0.00 in0.0 mm 0.00 in0.0 mm 0.00 in0.0 mm
02:45 AM 46.6°F8.1°C 39.8°F4.3°C 77% 8.4 mph N13.5 kmh N 10.7 mph17.2 kmh 30.46 in1031.5 mb 0.00 in0.0 mm 0.00 in0.0 mm 0.00 in0.0 mm
02:30 AM 46.6°F8.1°C 39.4°F4.1°C 76% 8.2 mph N13.2 kmh N 13.0 mph20.9 kmh 30.46 in1031.5 mb 0.00 in0.0 mm 0.00 in0.0 mm 0.00 in0.0 mm
02:15 AM 46.6°F8.1°C 39.4°F4.1°C 76% 8.5 mph N13.7 kmh N 10.7 mph17.2 kmh 30.46 in1031.5 mb 0.00 in0.0 mm 0.00 in0.0 mm 0.00 in0.0 mm
02:00 AM 46.8°F8.2°C 39.6°F4.2°C 76% 7.4 mph NW11.9 kmh NW 9.2 mph14.8 kmh 30.47 in1031.8 mb 0.00 in0.0 mm 0.00 in0.0 mm 0.00 in0.0 mm
01:45 AM 46.9°F8.3°C 39.8°F4.3°C 76% 9.1 mph NNW14.6 kmh NNW 10.7 mph17.2 kmh 30.47 in1031.8 mb 0.00 in0.0 mm 0.00 in0.0 mm 0.00 in0.0 mm
01:30 AM 46.9°F8.3°C 39.8°F4.3°C 76% 7.7 mph N12.4 kmh N 10.7 mph17.2 kmh 30.47 in1031.8 mb 0.00 in0.0 mm 0.00 in0.0 mm 0.00 in0.0 mm
01:15 AM 47.1°F8.4°C 39.6°F4.2°C 75% 8.3 mph N13.4 kmh N 10.7 mph17.2 kmh 30.47 in1031.8 mb 0.00 in0.0 mm 0.00 in0.0 mm 0.00 in0.0 mm
01:00 AM 47.3°F8.5°C 40.1°F4.5°C 76% 8.7 mph NNW14.0 kmh NNW 12.1 mph19.5 kmh 30.48 in1032.2 mb 0.00 in0.0 mm 0.00 in0.0 mm 0.00 in0.0 mm
12:45 AM 47.3°F8.5°C 40.1°F4.5°C 76% 9.5 mph N15.3 kmh N 12.1 mph19.5 kmh 30.47 in1031.8 mb 0.00 in0.0 mm 0.00 in0.0 mm 0.00 in0.0 mm
12:30 AM 47.5°F8.6°C 40.3°F4.6°C 76% 10.3 mph N16.6 kmh N 13.0 mph20.9 kmh 30.47 in1031.8 mb 0.00 in0.0 mm 0.00 in0.0 mm 0.00 in0.0 mm
12:15 AM 47.5°F8.6°C 40.0°F4.4°C 75% 9.2 mph N14.8 kmh N 13.0 mph20.9 kmh 30.48 in1032.2 mb 0.00 in0.0 mm 0.00 in0.0 mm 0.00 in0.0 mm
12:00 AM 47.8°F8.8°C 40.3°F4.6°C 75% 9.3 mph N15.0 kmh N 13.0 mph20.9 kmh 30.47 in1031.8 mb 0.00 in0.0 mm 0.00 in0.0 mm 0.00 in0.0 mm